Time;durP1;ratioP1;P1;durP2;ratioP2;P2;SDS_P1;SDS_P2;PMS_P1;PMS_P2;Temp;Humidity;BMP_temperature;BMP_pressure;BME280_temperature;BME280_humidity;BME280_pressure;Samples;Min_cycle;Max_cycle;Signal;HPM_P1;HPM_P2
2022/05/05 00:01:40;;;;;;;;;;;7.00;83.60;;;;;;5070681;28;19917;-72
2022/05/05 00:04:06;;;;;;;;;;;7.00;83.50;;;;;;5074358;28;20257;-72
2022/05/05 00:06:31;;;;;;;;;;;7.00;83.90;;;;;;5074420;28;19913;-72
2022/05/05 00:08:57;;;;;;;;;;;7.00;83.70;;;;;;5074188;28;19919;-73
2022/05/05 00:16:52;;;;;;;;;;;7.00;83.30;;;;;;5073887;28;20351;-71
2022/05/05 00:19:17;;;;;;;;;;;6.90;83.20;;;;;;5074136;28;20361;-71
2022/05/05 00:21:43;;;;;;;;;;;6.90;83.20;;;;;;5074106;28;19916;-71
2022/05/05 00:24:09;;;;;;;;;;;6.90;83.70;;;;;;5073928;28;20364;-72
2022/05/05 00:26:34;;;;;;;;;;;6.90;83.80;;;;;;5074111;28;19934;-71
2022/05/05 00:29:00;;;;;;;;;;;6.80;84.00;;;;;;5074293;28;19913;-71
2022/05/05 00:31:25;;;;;;;;;;;6.80;83.50;;;;;;5073767;28;20041;-72
2022/05/05 00:33:51;;;;;;;;;;;6.80;83.80;;;;;;5073855;28;19935;-71
2022/05/05 00:36:16;;;;;;;;;;;6.80;84.10;;;;;;5073723;28;19919;-71
2022/05/05 00:38:42;;;;;;;;;;;6.70;83.50;;;;;;5073770;28;19952;-71
2022/05/05 00:41:08;;;;;;;;;;;6.70;83.70;;;;;;5073516;28;20036;-71
2022/05/05 00:43:34;;;;;;;;;;;6.70;83.90;;;;;;5074039;28;19920;-71
2022/05/05 00:46:00;;;;;;;;;;;6.60;83.80;;;;;;5073275;28;20295;-72
2022/05/05 00:48:26;;;;;;;;;;;6.70;84.10;;;;;;5073597;28;20020;-72
2022/05/05 00:50:52;;;;;;;;;;;6.70;84.10;;;;;;5072115;28;20478;-73
2022/05/05 00:53:17;;;;;;;;;;;6.70;83.90;;;;;;5073522;28;19920;-73
2022/05/05 00:55:43;;;;;;;;;;;6.70;83.80;;;;;;5073377;28;19912;-71
2022/05/05 00:58:09;;;;;;;;;;;6.70;84.20;;;;;;5073372;28;20387;-73
2022/05/05 01:00:34;;;;;;;;;;;6.60;84.60;;;;;;5073704;28;20385;-73
2022/05/05 01:03:00;;;;;;;;;;;6.60;84.50;;;;;;5073024;28;19994;-71
2022/05/05 01:05:29;;;;;;;;;;;6.60;84.90;;;;;;5073179;28;19916;-71
2022/05/05 01:07:56;;;;;;;;;;;6.60;85.10;;;;;;5073633;28;20434;-71
2022/05/05 01:10:22;;;;;;;;;;;6.60;85.10;;;;;;5072980;28;19912;-72
2022/05/05 01:12:47;;;;;;;;;;;6.50;85.30;;;;;;5073442;28;19916;-71
2022/05/05 01:15:13;;;;;;;;;;;6.50;86.40;;;;;;5072078;28;19978;-72
2022/05/05 01:17:38;;;;;;;;;;;6.50;85.50;;;;;;5071598;28;19921;-72
2022/05/05 01:20:14;;;;;;;;;;;6.40;85.70;;;;;;5072948;28;19920;-71
2022/05/05 01:22:39;;;;;;;;;;;6.40;85.80;;;;;;5073140;28;20425;-72
2022/05/05 01:30:33;;;;;;;;;;;6.30;86.60;;;;;;5072731;28;19919;-71
2022/05/05 01:32:59;;;;;;;;;;;6.40;86.30;;;;;;5073011;28;19920;-71
2022/05/05 01:35:25;;;;;;;;;;;6.40;86.20;;;;;;5071272;28;19912;-72
2022/05/05 01:37:50;;;;;;;;;;;6.30;86.10;;;;;;5072698;28;19912;-71
2022/05/05 01:40:16;;;;;;;;;;;6.30;86.50;;;;;;5072461;28;19959;-71
2022/05/05 01:42:44;;;;;;;;;;;6.30;86.70;;;;;;5072837;28;20371;-73
2022/05/05 01:45:10;;;;;;;;;;;6.80;86.90;;;;;;5072479;28;20317;-72
2022/05/05 01:47:37;;;;;;;;;;;6.30;86.60;;;;;;5071248;28;20039;-71
2022/05/05 01:50:03;;;;;;;;;;;6.20;86.50;;;;;;5072401;28;20326;-71
2022/05/05 01:52:28;;;;;;;;;;;6.20;87.40;;;;;;5072745;28;20431;-72
2022/05/05 01:54:54;;;;;;;;;;;6.20;86.90;;;;;;5072500;28;19916;-70
2022/05/05 01:57:19;;;;;;;;;;;6.10;86.90;;;;;;5072571;28;19916;-70
2022/05/05 01:59:45;;;;;;;;;;;6.10;87.30;;;;;;5072118;28;19913;-73
2022/05/05 02:02:10;;;;;;;;;;;6.10;87.00;;;;;;5072279;28;19916;-72
2022/05/05 02:04:36;;;;;;;;;;;6.10;87.30;;;;;;5072132;28;20023;-70
2022/05/05 02:07:03;;;;;;;;;;;6.10;87.40;;;;;;5070590;28;19912;-73
2022/05/05 02:09:30;;;;;;;;;;;6.10;87.20;;;;;;5072003;28;19917;-70
2022/05/05 02:11:56;;;;;;;;;;;6.10;87.40;;;;;;5072105;28;19920;-70
2022/05/05 02:14:24;;;;;;;;;;;6.10;87.70;;;;;;5071884;28;20400;-72
2022/05/05 02:16:50;;;;;;;;;;;6.00;87.90;;;;;;5071866;28;20353;-71
2022/05/05 02:19:16;;;;;;;;;;;6.00;88.20;;;;;;5071848;28;19942;-71
2022/05/05 02:21:41;;;;;;;;;;;6.00;88.60;;;;;;5071789;28;19966;-72
2022/05/05 02:24:07;;;;;;;;;;;6.00;88.10;;;;;;5071845;28;20356;-71
2022/05/05 02:26:32;;;;;;;;;;;6.00;88.60;;;;;;5071428;28;19919;-71
2022/05/05 02:28:58;;;;;;;;;;;6.00;88.40;;;;;;5071735;28;19924;-71
2022/05/05 02:31:23;;;;;;;;;;;6.00;88.50;;;;;;5071905;28;20419;-71
2022/05/05 02:33:49;;;;;;;;;;;6.00;88.60;;;;;;5071609;28;19913;-71
2022/05/05 02:38:59;;;;;;;;;;;6.00;88.70;;;;;;5071539;28;19955;-71
2022/05/05 02:41:24;;;;;;;;;;;6.00;88.80;;;;;;5071569;28;19960;-71
2022/05/05 02:43:50;;;;;;;;;;;6.00;89.30;;;;;;5071495;28;19913;-72
2022/05/05 02:46:15;;;;;;;;;;;5.90;88.90;;;;;;5071594;28;20426;-72
2022/05/05 02:48:41;;;;;;;;;;;5.90;89.40;;;;;;5071378;28;20372;-71
2022/05/05 02:51:07;;;;;;;;;;;5.90;89.70;;;;;;5071411;28;20336;-71
2022/05/05 02:56:16;;;;;;;;;;;5.90;89.50;;;;;;5071321;28;19919;-71
2022/05/05 02:58:42;;;;;;;;;;;5.90;89.70;;;;;;5071301;28;19913;-71
2022/05/05 03:01:08;;;;;;;;;;;5.90;90.10;;;;;;5071203;28;19917;-71
2022/05/05 03:03:34;;;;;;;;;;;5.90;90.20;;;;;;5071246;28;19924;-72
2022/05/05 03:06:00;;;;;;;;;;;5.90;90.10;;;;;;5071307;28;19932;-71
2022/05/05 03:08:25;;;;;;;;;;;5.80;90.00;;;;;;5071183;28;19912;-71
2022/05/05 03:10:51;;;;;;;;;;;5.80;90.10;;;;;;5071343;28;20038;-71
2022/05/05 03:13:16;;;;;;;;;;;5.90;90.20;;;;;;5071181;28;20057;-71
2022/05/05 03:15:42;;;;;;;;;;;5.90;90.20;;;;;;5071092;28;19909;-72
2022/05/05 03:18:07;;;;;;;;;;;5.90;90.00;;;;;;5070945;28;19925;-72
2022/05/05 03:20:33;;;;;;;;;;;5.90;90.30;;;;;;5071063;28;20292;-71
2022/05/05 03:22:58;;;;;;;;;;;5.90;90.40;;;;;;5071400;28;20375;-71
2022/05/05 03:25:24;;;;;;;;;;;6.00;90.30;;;;;;5069749;28;19912;-71
2022/05/05 03:27:49;;;;;;;;;;;6.00;90.00;;;;;;5071329;28;19912;-71
2022/05/05 03:30:15;;;;;;;;;;;6.00;89.60;;;;;;5070958;28;20412;-71
2022/05/05 03:32:40;;;;;;;;;;;6.00;90.00;;;;;;5071320;28;19948;-70
2022/05/05 03:35:06;;;;;;;;;;;6.10;90.00;;;;;;5071035;28;20379;-71
2022/05/05 03:37:32;;;;;;;;;;;6.20;90.20;;;;;;5072904;28;19916;-70
2022/05/05 03:39:57;;;;;;;;;;;6.20;89.70;;;;;;5074971;28;20288;-71
2022/05/05 03:42:23;;;;;;;;;;;6.20;89.50;;;;;;5075089;28;19916;-72
2022/05/05 03:44:48;;;;;;;;;;;6.30;89.70;;;;;;5074653;28;19965;-72
2022/05/05 03:47:14;;;;;;;;;;;6.30;89.40;;;;;;5075176;28;19913;-71
2022/05/05 03:49:40;;;;;;;;;;;6.40;89.40;;;;;;5074818;28;20253;-71
2022/05/05 03:52:05;;;;;;;;;;;6.40;89.70;;;;;;5074793;28;20026;-72
2022/05/05 03:54:31;;;;;;;;;;;6.50;89.40;;;;;;5074515;28;20411;-72
2022/05/05 03:56:56;;;;;;;;;;;6.50;89.00;;;;;;5074898;28;19920;-71
2022/05/05 03:59:24;;;;;;;;;;;6.50;88.80;;;;;;5074514;28;19913;-71
2022/05/05 04:01:50;;;;;;;;;;;7.30;89.30;;;;;;5074626;28;19916;-71
2022/05/05 04:04:16;;;;;;;;;;;6.60;89.00;;;;;;5074371;28;19913;-71
2022/05/05 04:06:42;;;;;;;;;;;6.60;88.10;;;;;;5074475;28;19947;-71
2022/05/05 04:09:07;;;;;;;;;;;6.70;88.30;;;;;;5074148;28;19952;-71
2022/05/05 04:11:33;;;;;;;;;;;6.70;87.80;;;;;;5074447;28;19912;-71
2022/05/05 04:13:58;;;;;;;;;;;6.80;88.00;;;;;;5072958;28;20350;-71
2022/05/05 04:16:24;;;;;;;;;;;6.90;88.00;;;;;;5074538;28;19912;-72
2022/05/05 04:18:49;;;;;;;;;;;7.00;87.40;;;;;;5072613;28;19972;-71
2022/05/05 04:21:15;;;;;;;;;;;7.00;87.70;;;;;;5072719;28;19923;-70
2022/05/05 04:23:40;;;;;;;;;;;7.00;87.20;;;;;;5074017;28;19958;-69
2022/05/05 04:26:06;;;;;;;;;;;7.10;87.40;;;;;;5055858;28;19913;-70
2022/05/05 04:28:32;;;;;;;;;;;7.10;87.20;;;;;;5073805;28;20283;-70
2022/05/05 04:30:57;;;;;;;;;;;7.10;86.80;;;;;;5073837;28;20359;-71
2022/05/05 04:33:23;;;;;;;;;;;7.20;87.40;;;;;;5073838;28;19913;-71
2022/05/05 04:35:49;;;;;;;;;;;7.20;87.40;;;;;;5073936;28;19927;-73
2022/05/05 04:38:15;;;;;;;;;;;7.30;87.60;;;;;;5073957;28;19916;-70
2022/05/05 04:40:41;;;;;;;;;;;7.40;86.80;;;;;;5073409;28;19919;-70
2022/05/05 04:43:06;;;;;;;;;;;7.60;86.70;;;;;;5074035;28;19917;-71
2022/05/05 04:45:32;;;;;;;;;;;7.60;86.00;;;;;;5072472;28;20352;-71
2022/05/05 04:47:58;;;;;;;;;;;7.70;86.00;;;;;;5072573;28;19916;-70
2022/05/05 04:50:24;;;;;;;;;;;7.80;85.70;;;;;;5073595;28;19917;-71
2022/05/05 04:52:49;;;;;;;;;;;7.90;85.40;;;;;;5073864;28;19912;-71
2022/05/05 04:55:15;;;;;;;;;;;8.00;85.70;;;;;;5073375;28;19916;-71
2022/05/05 04:57:40;;;;;;;;;;;8.20;85.20;;;;;;5073284;28;19915;-71
2022/05/05 05:00:06;;;;;;;;;;;8.30;84.20;;;;;;5073327;28;19943;-70
2022/05/05 05:02:32;;;;;;;;;;;8.50;84.60;;;;;;5071912;28;20251;-70
2022/05/05 05:04:57;;;;;;;;;;;8.60;84.20;;;;;;5071783;28;19916;-71
2022/05/05 05:07:23;;;;;;;;;;;8.70;83.30;;;;;;5073475;28;19909;-70
2022/05/05 05:09:51;;;;;;;;;;;8.90;82.50;;;;;;5073067;28;20019;-71
2022/05/05 05:12:17;;;;;;;;;;;9.00;82.20;;;;;;5073454;28;19915;-71
2022/05/05 05:14:42;;;;;;;;;;;9.30;82.60;;;;;;5072880;28;19917;-70
2022/05/05 05:17:08;;;;;;;;;;;9.50;81.30;;;;;;5072687;28;20272;-71
2022/05/05 05:19:33;;;;;;;;;;;9.60;80.00;;;;;;5072795;28;19924;-69
2022/05/05 05:21:59;;;;;;;;;;;9.90;79.50;;;;;;5073046;28;20199;-70
2022/05/05 05:24:24;;;;;;;;;;;10.10;78.00;;;;;;5072811;28;19912;-71
2022/05/05 05:26:50;;;;;;;;;;;10.20;76.60;;;;;;5073191;28;19912;-71
2022/05/05 05:29:16;;;;;;;;;;;10.20;76.00;;;;;;5072637;28;19912;-71
2022/05/05 05:31:41;;;;;;;;;;;10.00;76.70;;;;;;5071504;28;20013;-71
2022/05/05 05:34:07;;;;;;;;;;;10.10;76.60;;;;;;5072576;28;20372;-72
2022/05/05 05:36:32;;;;;;;;;;;10.20;76.30;;;;;;5072914;28;19923;-73
2022/05/05 05:38:58;;;;;;;;;;;10.40;76.10;;;;;;5072463;28;19959;-71
2022/05/05 05:41:23;;;;;;;;;;;10.60;77.10;;;;;;5072362;28;20257;-71
2022/05/05 05:43:48;;;;;;;;;;;10.70;76.20;;;;;;5072507;28;19948;-71
2022/05/05 05:46:15;;;;;;;;;;;10.90;74.30;;;;;;5072405;28;19928;-71
2022/05/05 05:48:40;;;;;;;;;;;11.00;73.90;;;;;;5072345;28;20249;-71
2022/05/05 05:51:06;;;;;;;;;;;11.00;74.90;;;;;;5072179;28;19943;-71
2022/05/05 05:53:31;;;;;;;;;;;11.20;75.10;;;;;;5070889;28;20360;-72
2022/05/05 05:55:57;;;;;;;;;;;11.30;75.10;;;;;;5072112;28;19909;-72
2022/05/05 05:58:22;;;;;;;;;;;11.50;75.10;;;;;;5071931;28;20255;-72
2022/05/05 06:00:48;;;;;;;;;;;11.60;74.60;;;;;;5071647;28;19930;-72
2022/05/05 06:05:57;;;;;;;;;;;11.80;73.70;;;;;;5071743;28;19958;-72
2022/05/05 06:08:23;;;;;;;;;;;12.00;73.80;;;;;;5071997;28;19920;-71
2022/05/05 06:10:48;;;;;;;;;;;12.10;72.80;;;;;;5072060;28;20011;-72
2022/05/05 06:13:14;;;;;;;;;;;12.20;72.70;;;;;;5071840;28;20342;-72
2022/05/05 06:15:39;;;;;;;;;;;12.40;72.40;;;;;;5070421;28;19908;-71
2022/05/05 06:18:05;;;;;;;;;;;12.40;72.30;;;;;;5071908;28;19925;-71
2022/05/05 06:20:32;;;;;;;;;;;12.50;70.90;;;;;;5071695;28;19912;-71
2022/05/05 06:22:58;;;;;;;;;;;12.50;70.30;;;;;;5071924;28;19948;-72
2022/05/05 06:25:24;;;;;;;;;;;12.60;71.80;;;;;;5071517;28;19959;-71
2022/05/05 06:27:50;;;;;;;;;;;12.70;71.40;;;;;;5071928;28;20403;-72
2022/05/05 06:30:16;;;;;;;;;;;12.70;71.30;;;;;;5071396;28;20011;-71
2022/05/05 06:32:42;;;;;;;;;;;12.80;70.00;;;;;;5071826;28;19912;-71
2022/05/05 06:35:08;;;;;;;;;;;13.00;68.80;;;;;;5071512;28;19920;-71
2022/05/05 06:37:34;;;;;;;;;;;13.20;68.20;;;;;;5071845;28;19999;-72
2022/05/05 06:40:03;;;;;;;;;;;13.30;68.60;;;;;;5071674;28;19966;-73
2022/05/05 06:42:28;;;;;;;;;;;13.50;69.50;;;;;;5071178;28;20022;-72
2022/05/05 06:44:54;;;;;;;;;;;13.70;67.70;;;;;;5071288;28;20055;-73
2022/05/05 06:47:19;;;;;;;;;;;13.70;65.20;;;;;;5070158;28;19923;-73
2022/05/05 06:49:45;;;;;;;;;;;13.50;65.10;;;;;;5071305;28;19920;-72
2022/05/05 06:52:10;;;;;;;;;;;13.40;66.40;;;;;;5071545;28;19913;-72
2022/05/05 06:54:36;;;;;;;;;;;13.60;65.10;;;;;;5071577;28;20356;-72
2022/05/05 06:57:02;;;;;;;;;;;13.80;66.10;;;;;;5071271;28;20244;-71
2022/05/05 06:59:27;;;;;;;;;;;13.90;65.40;;;;;;5071094;28;20332;-72
2022/05/05 07:01:53;;;;;;;;;;;13.90;62.60;;;;;;5071242;28;19962;-71
2022/05/05 07:07:03;;;;;;;;;;;13.50;62.10;;;;;;5071575;28;19919;-72
2022/05/05 07:12:12;;;;;;;;;;;13.70;62.50;;;;;;5072096;28;20394;-72
2022/05/05 07:14:38;;;;;;;;;;;14.00;64.10;;;;;;5075167;28;19912;-72
2022/05/05 07:17:03;;;;;;;;;;;14.10;62.10;;;;;;5075143;28;19939;-71
2022/05/05 07:19:29;;;;;;;;;;;14.30;61.90;;;;;;5073943;28;19920;-71
2022/05/05 07:21:54;;;;;;;;;;;14.40;61.80;;;;;;5075368;28;19916;-72
2022/05/05 07:24:20;;;;;;;;;;;14.40;60.90;;;;;;5075286;28;19920;-72
2022/05/05 07:26:45;;;;;;;;;;;14.30;60.10;;;;;;5075273;28;19912;-69
2022/05/05 07:29:11;;;;;;;;;;;14.50;62.30;;;;;;5074988;28;19960;-70
2022/05/05 07:31:36;;;;;;;;;;;14.90;62.60;;;;;;5074849;28;20307;-71
2022/05/05 07:34:02;;;;;;;;;;;15.10;61.80;;;;;;5074820;28;19919;-72
2022/05/05 07:36:27;;;;;;;;;;;15.20;61.20;;;;;;5075004;28;19942;-71
2022/05/05 07:38:53;;;;;;;;;;;15.50;60.90;;;;;;5073386;28;19918;-70
2022/05/05 07:41:18;;;;;;;;;;;15.60;60.20;;;;;;5074597;28;19920;-69
2022/05/05 07:43:44;;;;;;;;;;;15.70;60.00;;;;;;5074920;28;19916;-70
2022/05/05 07:46:09;;;;;;;;;;;15.70;59.90;;;;;;5074775;28;19912;-71
2022/05/05 07:48:35;;;;;;;;;;;15.70;58.50;;;;;;5074618;28;20279;-70
2022/05/05 07:51:00;;;;;;;;;;;15.50;59.10;;;;;;5074440;28;19942;-71
2022/05/05 07:53:26;;;;;;;;;;;15.40;59.70;;;;;;5074410;28;20007;-71
2022/05/05 07:55:51;;;;;;;;;;;15.50;60.00;;;;;;5074153;28;20276;-71
2022/05/05 07:58:17;;;;;;;;;;;15.80;60.80;;;;;;5074226;28;19962;-71
2022/05/05 08:00:42;;;;;;;;;;;15.80;59.80;;;;;;5074102;28;19920;-71
2022/05/05 08:03:08;;;;;;;;;;;16.00;58.40;;;;;;5074256;28;20397;-72
2022/05/05 08:05:33;;;;;;;;;;;16.00;58.30;;;;;;5074691;28;19909;-71
2022/05/05 08:07:59;;;;;;;;;;;16.00;58.70;;;;;;5074548;28;19916;-72
2022/05/05 08:10:28;;;;;;;;;;;16.20;59.30;;;;;;5072871;28;19956;-71
2022/05/05 08:12:54;;;;;;;;;;;16.40;59.00;;;;;;5074590;28;20372;-71
2022/05/05 08:15:19;;;;;;;;;;;16.60;58.40;;;;;;5074363;28;20019;-72
2022/05/05 08:17:46;;;;;;;;;;;16.90;57.80;;;;;;5074091;28;19925;-72
2022/05/05 08:20:11;;;;;;;;;;;16.80;57.60;;;;;;5074388;28;19962;-72
2022/05/05 08:22:37;;;;;;;;;;;16.80;58.20;;;;;;5073923;28;19917;-74
2022/05/05 08:30:32;;;;;;;;;;;17.10;56.70;;;;;;5073908;28;19973;-73
2022/05/05 08:32:58;;;;;;;;;;;17.30;57.30;;;;;;5074240;28;19912;-73
2022/05/05 08:35:24;;;;;;;;;;;17.10;57.00;;;;;;5072755;28;19940;-73
2022/05/05 08:37:50;;;;;;;;;;;17.20;57.90;;;;;;5073745;28;19912;-73
2022/05/05 08:40:16;;;;;;;;;;;17.50;56.60;;;;;;5073848;28;20410;-72
2022/05/05 08:42:42;;;;;;;;;;;17.60;56.70;;;;;;5074044;28;19920;-72
2022/05/05 08:45:08;;;;;;;;;;;17.90;56.10;;;;;;5073799;28;20410;-71
2022/05/05 08:47:33;;;;;;;;;;;18.00;56.20;;;;;;5073821;28;20002;-70
2022/05/05 08:50:00;;;;;;;;;;;18.30;55.20;;;;;;5073496;28;19960;-71
2022/05/05 08:52:27;;;;;;;;;;;18.50;54.50;;;;;;5073827;28;20380;-71
2022/05/05 08:54:53;;;;;;;;;;;18.70;54.50;;;;;;5073393;28;20364;-71
2022/05/05 08:57:18;;;;;;;;;;;18.80;53.70;;;;;;5073808;28;19923;-71
2022/05/05 08:59:44;;;;;;;;;;;18.90;53.60;;;;;;5073131;28;19913;-70
2022/05/05 09:02:10;;;;;;;;;;;18.90;53.70;;;;;;5073561;28;19970;-70
2022/05/05 09:04:35;;;;;;;;;;;19.00;53.60;;;;;;5073422;28;19913;-70
2022/05/05 09:07:01;;;;;;;;;;;19.00;52.40;;;;;;5073400;28;19912;-69
2022/05/05 09:09:27;;;;;;;;;;;18.90;53.10;;;;;;5073235;28;19923;-70
2022/05/05 09:12:05;;;;;;;;;;;18.90;53.70;;;;;;5073332;28;19916;-69
2022/05/05 09:14:41;;;;;;;;;;;18.90;52.70;;;;;;5072920;28;20364;-70
2022/05/05 09:17:08;;;;;;;;;;;18.90;53.00;;;;;;5073042;28;20408;-70
2022/05/05 09:19:41;;;;;;;;;;;19.30;52.10;;;;;;5072905;28;19921;-72
2022/05/05 09:22:08;;;;;;;;;;;19.10;52.10;;;;;;5071548;28;19917;-71
2022/05/05 09:24:36;;;;;;;;;;;18.90;52.30;;;;;;5072757;28;20039;-73
2022/05/05 09:27:17;;;;;;;;;;;18.90;51.60;;;;;;5072848;28;20002;-72
2022/05/05 09:29:42;;;;;;;;;;;18.60;53.60;;;;;;5072656;28;19920;-71
2022/05/05 09:32:12;;;;;;;;;;;18.20;53.30;;;;;;5072744;28;20313;-70
2022/05/05 09:34:38;;;;;;;;;;;18.20;53.60;;;;;;5071584;28;20425;-69
2022/05/05 09:37:19;;;;;;;;;;;18.20;54.00;;;;;;5072688;28;20412;-69
2022/05/05 09:39:45;;;;;;;;;;;18.50;53.80;;;;;;5072308;28;20003;-70
2022/05/05 09:42:10;;;;;;;;;;;18.70;53.20;;;;;;5072766;28;20014;-71
2022/05/05 09:44:46;;;;;;;;;;;18.40;52.80;;;;;;5072427;28;19912;-71
2022/05/05 09:47:19;;;;;;;;;;;18.30;52.90;;;;;;5072887;28;19913;-72
2022/05/05 09:49:57;;;;;;;;;;;18.40;53.50;;;;;;5072673;28;19935;-71
2022/05/05 09:57:56;;;;;;;;;;;18.90;53.10;;;;;;5072598;28;19931;-69
2022/05/05 10:00:43;;;;;;;;;;;18.90;52.50;;;;;;5071967;28;19935;-68
2022/05/05 10:05:56;;;;;;;;;;;18.60;52.10;;;;;;5072010;28;19915;-69
2022/05/05 10:08:30;;;;;;;;;;;18.90;52.90;;;;;;5072138;28;19912;-69
2022/05/05 10:10:56;;;;;;;;;;;19.20;52.80;;;;;;5071868;28;20049;-69
2022/05/05 10:13:23;;;;;;;;;;;19.40;52.10;;;;;;5071873;28;20489;-70
2022/05/05 10:15:49;;;;;;;;;;;19.80;51.90;;;;;;5071854;28;19936;-69
2022/05/05 10:18:16;;;;;;;;;;;20.00;51.00;;;;;;5071646;28;19925;-71
2022/05/05 10:20:41;;;;;;;;;;;20.20;51.70;;;;;;5071302;28;19908;-69
2022/05/05 10:23:12;;;;;;;;;;;20.40;50.90;;;;;;5071681;28;19916;-69
2022/05/05 10:25:40;;;;;;;;;;;20.60;50.20;;;;;;5071063;28;20081;-69
2022/05/05 10:28:24;;;;;;;;;;;20.50;49.80;;;;;;5071644;28;19951;-70
2022/05/05 10:30:49;;;;;;;;;;;20.20;49.60;;;;;;5071558;28;20419;-69
2022/05/05 10:33:15;;;;;;;;;;;20.30;50.20;;;;;;5071547;28;19923;-69
2022/05/05 10:35:47;;;;;;;;;;;20.60;49.10;;;;;;5071456;28;20152;-70
2022/05/05 10:38:31;;;;;;;;;;;20.80;48.90;;;;;;5071754;28;19921;-70
2022/05/05 10:40:57;;;;;;;;;;;20.40;48.30;;;;;;5071423;28;19913;-69
2022/05/05 10:43:32;;;;;;;;;;;20.50;49.70;;;;;;5071546;28;19962;-71
2022/05/05 10:45:58;;;;;;;;;;;20.30;49.00;;;;;;5071195;28;19915;-70
2022/05/05 10:48:30;;;;;;;;;;;20.10;49.30;;;;;;5071498;28;19917;-71
2022/05/05 10:51:05;;;;;;;;;;;20.30;49.70;;;;;;5071070;28;19908;-68
2022/05/05 10:53:31;;;;;;;;;;;20.80;49.00;;;;;;5071311;28;19961;-69
2022/05/05 10:55:57;;;;;;;;;;;21.30;49.10;;;;;;5071503;28;20000;-70
2022/05/05 10:58:41;;;;;;;;;;;21.50;48.40;;;;;;5071241;28;19962;-69
2022/05/05 11:01:08;;;;;;;;;;;21.60;48.70;;;;;;5070763;28;19920;-70
2022/05/05 11:03:34;;;;;;;;;;;21.60;48.30;;;;;;5071086;28;19916;-69
2022/05/05 11:06:14;;;;;;;;;;;21.60;48.80;;;;;;5070883;28;20505;-70
2022/05/05 11:08:52;;;;;;;;;;;21.60;48.10;;;;;;5071299;28;19920;-72
2022/05/05 11:21:31;;;;;;;;;;;21.70;47.80;;;;;;5070944;28;20083;-73
2022/05/05 11:22:27;;;;;;;;;;;21.50;48.20;;;;;;5071185;28;19970;-72
2022/05/05 11:24:53;;;;;;;;;;;21.90;48.50;;;;;;5070666;28;19912;-72
2022/05/05 11:27:22;;;;;;;;;;;22.00;47.40;;;;;;5071323;28;19912;-73
2022/05/05 11:29:48;;;;;;;;;;;22.00;46.90;;;;;;5069687;28;19916;-71
2022/05/05 11:32:14;;;;;;;;;;;22.00;47.50;;;;;;5069809;28;19908;-72
2022/05/05 11:34:40;;;;;;;;;;;22.00;47.00;;;;;;5070913;28;20315;-72
2022/05/05 11:37:07;;;;;;;;;;;21.60;47.00;;;;;;5069551;28;19952;-72
2022/05/05 11:39:33;;;;;;;;;;;21.00;46.50;;;;;;5070964;28;19931;-72
2022/05/05 11:42:00;;;;;;;;;;;20.50;46.70;;;;;;5069572;28;19919;-72
2022/05/05 11:44:27;;;;;;;;;;;19.60;47.00;;;;;;5069748;28;19920;-73
2022/05/05 11:46:57;;;;;;;;;;;18.90;47.90;;;;;;5071092;28;20271;-73
2022/05/05 11:49:32;;;;;;;;;;;18.90;49.30;;;;;;5069627;28;19920;-73
2022/05/05 11:51:58;;;;;;;;;;;19.20;48.80;;;;;;5069434;28;19908;-72
2022/05/05 11:54:28;;;;;;;;;;;19.60;48.80;;;;;;5070673;28;20307;-73
2022/05/05 11:56:53;;;;;;;;;;;20.00;48.00;;;;;;5070989;28;19962;-72
2022/05/05 12:02:15;;;;;;;;;;;20.40;47.20;;;;;;5074471;28;19919;-72
2022/05/05 12:04:45;;;;;;;;;;;20.30;47.60;;;;;;5074334;28;20228;-73
2022/05/05 12:07:12;;;;;;;;;;;20.40;47.50;;;;;;5072837;28;19909;-72
2022/05/05 12:09:37;;;;;;;;;;;19.80;47.60;;;;;;5074154;28;19975;-73
2022/05/05 12:12:14;;;;;;;;;;;20.40;48.80;;;;;;5074395;28;20352;-72
2022/05/05 12:14:44;;;;;;;;;;;20.40;48.30;;;;;;5074511;28;19920;-72
2022/05/05 12:17:20;;;;;;;;;;;20.20;47.80;;;;;;5074076;28;19916;-73
2022/05/05 12:19:48;;;;;;;;;;;20.10;48.30;;;;;;5073867;28;19912;-73
2022/05/05 12:22:14;;;;;;;;;;;20.00;48.90;;;;;;5074027;28;20368;-72
2022/05/05 12:24:44;;;;;;;;;;;19.70;49.10;;;;;;5074001;28;20049;-72
2022/05/05 12:27:12;;;;;;;;;;;19.60;49.40;;;;;;5073782;28;19920;-72
2022/05/05 12:29:42;;;;;;;;;;;19.50;51.80;;;;;;5072630;28;19966;-73
2022/05/05 12:32:08;;;;;;;;;;;20.00;51.40;;;;;;5072821;28;19912;-73
2022/05/05 12:34:34;;;;;;;;;;;19.60;51.20;;;;;;5074037;28;19974;-74
2022/05/05 12:37:05;;;;;;;;;;;19.70;50.90;;;;;;5074075;28;19963;-73
2022/05/05 12:39:31;;;;;;;;;;;19.60;51.00;;;;;;5073826;28;20026;-72
2022/05/05 12:41:57;;;;;;;;;;;19.30;51.20;;;;;;5073523;28;20011;-73
2022/05/05 12:44:22;;;;;;;;;;;18.80;52.80;;;;;;5073280;28;19919;-73
2022/05/05 12:46:51;;;;;;;;;;;18.60;54.00;;;;;;5073602;28;19912;-72
2022/05/05 12:49:35;;;;;;;;;;;18.60;53.50;;;;;;5073338;28;19917;-73
2022/05/05 12:52:02;;;;;;;;;;;18.60;53.80;;;;;;5073442;28;20306;-73
2022/05/05 12:59:56;;;;;;;;;;;18.40;54.50;;;;;;5073559;28;19935;-73
2022/05/05 13:02:21;;;;;;;;;;;18.30;53.80;;;;;;5073575;28;19916;-72
2022/05/05 13:04:48;;;;;;;;;;;18.10;54.30;;;;;;5072318;28;20391;-73
2022/05/05 13:07:14;;;;;;;;;;;18.00;53.80;;;;;;5072058;28;19912;-73
2022/05/05 13:09:40;;;;;;;;;;;18.00;54.20;;;;;;5072016;28;20024;-72
2022/05/05 13:12:05;;;;;;;;;;;18.00;52.90;;;;;;5073545;28;19919;-72
2022/05/05 13:14:31;;;;;;;;;;;17.80;54.00;;;;;;5073271;28;20257;-73
2022/05/05 13:16:57;;;;;;;;;;;17.80;53.40;;;;;;5071568;28;19917;-73
2022/05/05 13:19:24;;;;;;;;;;;17.80;51.60;;;;;;5073189;28;19913;-72
2022/05/05 13:21:49;;;;;;;;;;;17.60;48.50;;;;;;5073162;28;19916;-73
2022/05/05 13:24:15;;;;;;;;;;;17.10;49.00;;;;;;5073007;28;19920;-72
2022/05/05 13:26:41;;;;;;;;;;;16.90;49.50;;;;;;5071385;28;19961;-72
2022/05/05 13:29:07;;;;;;;;;;;17.00;50.30;;;;;;5072837;28;19948;-73
2022/05/05 13:31:32;;;;;;;;;;;17.10;51.60;;;;;;5072844;28;19971;-72
2022/05/05 13:33:58;;;;;;;;;;;17.30;51.20;;;;;;5071238;28;19916;-71
2022/05/05 13:36:23;;;;;;;;;;;17.20;53.70;;;;;;5072781;28;20249;-71
2022/05/05 13:38:49;;;;;;;;;;;17.10;54.90;;;;;;5072470;28;19970;-72
2022/05/05 13:41:14;;;;;;;;;;;17.10;55.30;;;;;;5072535;28;20406;-72
2022/05/05 13:43:40;;;;;;;;;;;17.10;55.10;;;;;;5072598;28;19923;-73
2022/05/05 13:46:06;;;;;;;;;;;17.10;53.80;;;;;;5072631;28;19912;-73
2022/05/05 13:48:34;;;;;;;;;;;17.10;54.40;;;;;;5072395;28;20285;-72
2022/05/05 13:50:59;;;;;;;;;;;17.10;55.00;;;;;;5072256;28;19919;-72
2022/05/05 13:53:25;;;;;;;;;;;17.10;55.10;;;;;;5070884;28;19912;-72
2022/05/05 13:55:50;;;;;;;;;;;17.00;55.10;;;;;;5072148;28;19955;-72
2022/05/05 13:58:16;;;;;;;;;;;17.00;55.20;;;;;;5072228;28;19913;-73
2022/05/05 14:00:41;;;;;;;;;;;17.20;54.80;;;;;;5072168;28;20260;-72
2022/05/05 14:03:07;;;;;;;;;;;17.00;54.50;;;;;;5072148;28;19954;-72
2022/05/05 14:05:32;;;;;;;;;;;16.80;54.00;;;;;;5072211;28;20390;-72
2022/05/05 14:13:26;;;;;;;;;;;16.70;55.20;;;;;;5072311;28;19919;-72
2022/05/05 14:15:52;;;;;;;;;;;16.70;56.00;;;;;;5071912;28;19909;-72
2022/05/05 14:18:18;;;;;;;;;;;16.70;56.00;;;;;;5071798;28;19924;-72
2022/05/05 14:20:43;;;;;;;;;;;16.60;54.90;;;;;;5071281;28;19917;-71
2022/05/05 14:23:09;;;;;;;;;;;16.50;53.70;;;;;;5071742;28;19924;-72
2022/05/05 14:25:34;;;;;;;;;;;16.50;54.40;;;;;;5070649;28;19908;-72
2022/05/05 14:28:00;;;;;;;;;;;16.50;54.80;;;;;;5072007;28;19927;-72
2022/05/05 14:30:26;;;;;;;;;;;16.60;55.10;;;;;;5070315;28;20431;-72
2022/05/05 14:32:51;;;;;;;;;;;16.60;55.10;;;;;;5072015;28;19923;-71
2022/05/05 14:35:16;;;;;;;;;;;16.30;54.90;;;;;;5071694;28;20272;-72
2022/05/05 14:37:42;;;;;;;;;;;16.30;55.90;;;;;;5071487;28;19916;-72
2022/05/05 14:40:08;;;;;;;;;;;16.20;56.80;;;;;;5071570;28;20383;-72
2022/05/05 14:42:33;;;;;;;;;;;16.20;56.80;;;;;;5071904;28;19923;-71
2022/05/05 14:44:59;;;;;;;;;;;16.30;57.40;;;;;;5071807;28;20136;-71
2022/05/05 14:47:24;;;;;;;;;;;16.30;57.80;;;;;;5070348;28;19912;-71
2022/05/05 14:49:50;;;;;;;;;;;16.40;57.30;;;;;;5070105;28;19955;-73
2022/05/05 14:52:16;;;;;;;;;;;16.30;57.00;;;;;;5071269;28;19919;-71
2022/05/05 14:54:41;;;;;;;;;;;16.30;57.20;;;;;;5071617;28;19920;-72
2022/05/05 14:57:08;;;;;;;;;;;16.20;56.90;;;;;;5071484;28;19931;-72
2022/05/05 14:59:34;;;;;;;;;;;16.20;57.30;;;;;;5071304;28;19952;-72
2022/05/05 15:02:00;;;;;;;;;;;16.20;57.40;;;;;;5071418;28;20003;-71
2022/05/05 15:04:25;;;;;;;;;;;16.20;57.20;;;;;;5071267;28;19919;-72
2022/05/05 15:06:51;;;;;;;;;;;16.10;56.70;;;;;;5071229;28;20280;-72
2022/05/05 15:09:18;;;;;;;;;;;16.10;57.30;;;;;;5070811;28;19912;-72
2022/05/05 15:11:43;;;;;;;;;;;16.00;57.70;;;;;;5071415;28;19917;-72
2022/05/05 15:14:09;;;;;;;;;;;16.00;57.30;;;;;;5071416;28;19917;-72
2022/05/05 15:16:36;;;;;;;;;;;16.00;58.10;;;;;;5069722;28;19917;-72
2022/05/05 15:19:02;;;;;;;;;;;15.90;57.70;;;;;;5070948;28;20486;-71